sensor_id;sensor_type;location;lat;lon;timestamp;temperature;humidity
20957;DHT22;10637;47.970;7.830;2023-03-01T00:02:10;-0.10;99.90
20957;DHT22;10637;47.970;7.830;2023-03-01T00:07:12;-0.10;99.90
20957;DHT22;10637;47.970;7.830;2023-03-01T00:12:14;-0.10;99.90
20957;DHT22;10637;47.970;7.830;2023-03-01T00:17:16;-0.20;99.90
20957;DHT22;10637;47.970;7.830;2023-03-01T00:22:18;-0.10;99.90
20957;DHT22;10637;47.970;7.830;2023-03-01T00:27:20;-0.20;99.90
20957;DHT22;10637;47.970;7.830;2023-03-01T00:32:21;-0.20;99.90
20957;DHT22;10637;47.970;7.830;2023-03-01T00:37:24;-0.40;99.90
20957;DHT22;10637;47.970;7.830;2023-03-01T00:42:25;-0.30;99.90
20957;DHT22;10637;47.970;7.830;2023-03-01T00:47:29;-0.70;99.90
20957;DHT22;10637;47.970;7.830;2023-03-01T00:52:30;-0.70;99.90
20957;DHT22;10637;47.970;7.830;2023-03-01T00:57:32;-0.50;99.90
20957;DHT22;10637;47.970;7.830;2023-03-01T01:02:35;-0.50;99.90
20957;DHT22;10637;47.970;7.830;2023-03-01T01:07:38;-0.50;99.90
20957;DHT22;10637;47.970;7.830;2023-03-01T01:12:40;-0.50;99.90
20957;DHT22;10637;47.970;7.830;2023-03-01T01:17:42;-0.50;99.90
20957;DHT22;10637;47.970;7.830;2023-03-01T01:22:44;-0.40;99.90
20957;DHT22;10637;47.970;7.830;2023-03-01T01:27:45;-0.50;99.90
20957;DHT22;10637;47.970;7.830;2023-03-01T01:32:47;-0.60;99.90
20957;DHT22;10637;47.970;7.830;2023-03-01T01:37:49;-0.60;99.90
20957;DHT22;10637;47.970;7.830;2023-03-01T01:42:50;-0.60;99.90
20957;DHT22;10637;47.970;7.830;2023-03-01T01:47:54;-0.60;99.90
20957;DHT22;10637;47.970;7.830;2023-03-01T01:52:57;-0.80;99.90
20957;DHT22;10637;47.970;7.830;2023-03-01T01:58:01;-0.90;99.90
20957;DHT22;10637;47.970;7.830;2023-03-01T02:03:08;-0.60;99.90
20957;DHT22;10637;47.970;7.830;2023-03-01T02:08:12;-0.50;99.90
20957;DHT22;10637;47.970;7.830;2023-03-01T02:13:15;-0.70;99.90
20957;DHT22;10637;47.970;7.830;2023-03-01T02:18:18;-0.70;99.90
20957;DHT22;10637;47.970;7.830;2023-03-01T02:23:22;-1.00;99.90
20957;DHT22;10637;47.970;7.830;2023-03-01T02:28:35;-1.10;99.90
20957;DHT22;10637;47.970;7.830;2023-03-01T02:33:39;-0.80;99.90
20957;DHT22;10637;47.970;7.830;2023-03-01T02:38:42;-1.00;99.90
20957;DHT22;10637;47.970;7.830;2023-03-01T02:43:44;-0.90;99.90
20957;DHT22;10637;47.970;7.830;2023-03-01T02:48:55;-0.70;99.90
20957;DHT22;10637;47.970;7.830;2023-03-01T02:54:08;-0.60;99.90
20957;DHT22;10637;47.970;7.830;2023-03-01T02:59:12;-0.50;99.90
20957;DHT22;10637;47.970;7.830;2023-03-01T03:04:16;-0.60;99.90
20957;DHT22;10637;47.970;7.830;2023-03-01T03:09:19;-0.50;99.90
20957;DHT22;10637;47.970;7.830;2023-03-01T03:14:21;-0.70;99.90
20957;DHT22;10637;47.970;7.830;2023-03-01T03:19:22;-0.80;99.90
20957;DHT22;10637;47.970;7.830;2023-03-01T03:24:24;-0.90;99.90
20957;DHT22;10637;47.970;7.830;2023-03-01T03:29:26;-0.80;99.90
20957;DHT22;10637;47.970;7.830;2023-03-01T03:34:27;-0.90;99.90
20957;DHT22;10637;47.970;7.830;2023-03-01T03:39:29;-1.00;99.90
20957;DHT22;10637;47.970;7.830;2023-03-01T03:44:36;-0.90;99.90
20957;DHT22;10637;47.970;7.830;2023-03-01T03:49:38;-0.70;99.90
20957;DHT22;10637;47.970;7.830;2023-03-01T03:54:40;-0.70;99.90
20957;DHT22;10637;47.970;7.830;2023-03-01T03:59:42;-0.60;99.90
20957;DHT22;10637;47.970;7.830;2023-03-01T04:04:44;-0.50;99.90
20957;DHT22;10637;47.970;7.830;2023-03-01T04:09:45;-0.20;99.90
20957;DHT22;10637;47.970;7.830;2023-03-01T04:14:47;0.00;99.90
20957;DHT22;10637;47.970;7.830;2023-03-01T04:19:49;0.10;99.90
20957;DHT22;10637;47.970;7.830;2023-03-01T04:24:51;0.10;99.90
20957;DHT22;10637;47.970;7.830;2023-03-01T04:29:52;0.30;99.90
20957;DHT22;10637;47.970;7.830;2023-03-01T04:34:54;0.20;99.90
20957;DHT22;10637;47.970;7.830;2023-03-01T04:39:56;0.30;99.90
20957;DHT22;10637;47.970;7.830;2023-03-01T04:44:57;0.30;99.90
20957;DHT22;10637;47.970;7.830;2023-03-01T04:49:59;0.20;99.90
20957;DHT22;10637;47.970;7.830;2023-03-01T04:55:01;0.40;99.90
20957;DHT22;10637;47.970;7.830;2023-03-01T05:00:08;0.70;99.90
20957;DHT22;10637;47.970;7.830;2023-03-01T05:05:33;0.70;99.90
20957;DHT22;10637;47.970;7.830;2023-03-01T05:10:36;0.80;99.90
20957;DHT22;10637;47.970;7.830;2023-03-01T05:15:38;0.70;99.90
20957;DHT22;10637;47.970;7.830;2023-03-01T05:20:39;0.80;99.90
20957;DHT22;10637;47.970;7.830;2023-03-01T05:25:41;0.80;99.90
20957;DHT22;10637;47.970;7.830;2023-03-01T05:30:43;0.80;99.90
20957;DHT22;10637;47.970;7.830;2023-03-01T05:35:45;0.80;99.90
20957;DHT22;10637;47.970;7.830;2023-03-01T05:40:48;1.00;99.90
20957;DHT22;10637;47.970;7.830;2023-03-01T05:45:50;0.80;99.90
20957;DHT22;10637;47.970;7.830;2023-03-01T05:50:52;0.70;99.90
20957;DHT22;10637;47.970;7.830;2023-03-01T05:55:54;0.70;99.90
20957;DHT22;10637;47.970;7.830;2023-03-01T06:00:55;0.60;99.90
20957;DHT22;10637;47.970;7.830;2023-03-01T06:05:58;0.90;99.90
20957;DHT22;10637;47.970;7.830;2023-03-01T06:11:00;0.80;99.90
20957;DHT22;10637;47.970;7.830;2023-03-01T06:16:07;0.90;99.90
20957;DHT22;10637;47.970;7.830;2023-03-01T06:21:09;0.90;99.90
20957;DHT22;10637;47.970;7.830;2023-03-01T06:26:11;1.00;99.90
20957;DHT22;10637;47.970;7.830;2023-03-01T06:31:13;1.10;99.90
20957;DHT22;10637;47.970;7.830;2023-03-01T06:36:14;1.20;99.90
20957;DHT22;10637;47.970;7.830;2023-03-01T06:41:20;1.00;99.90
20957;DHT22;10637;47.970;7.830;2023-03-01T06:46:21;1.20;99.90
20957;DHT22;10637;47.970;7.830;2023-03-01T06:51:23;1.20;99.90
20957;DHT22;10637;47.970;7.830;2023-03-01T06:56:25;1.30;99.90
20957;DHT22;10637;47.970;7.830;2023-03-01T07:01:26;1.30;99.90
20957;DHT22;10637;47.970;7.830;2023-03-01T07:06:28;1.30;99.90
20957;DHT22;10637;47.970;7.830;2023-03-01T07:11:30;1.30;99.90
20957;DHT22;10637;47.970;7.830;2023-03-01T07:16:32;1.40;99.90
20957;DHT22;10637;47.970;7.830;2023-03-01T07:21:35;1.50;99.90
20957;DHT22;10637;47.970;7.830;2023-03-01T07:26:37;1.50;99.90
20957;DHT22;10637;47.970;7.830;2023-03-01T07:31:39;1.60;99.90
20957;DHT22;10637;47.970;7.830;2023-03-01T07:36:40;1.80;99.90
20957;DHT22;10637;47.970;7.830;2023-03-01T07:41:44;2.00;99.90
20957;DHT22;10637;47.970;7.830;2023-03-01T07:46:46;1.90;99.90
20957;DHT22;10637;47.970;7.830;2023-03-01T07:51:47;1.90;99.90
20957;DHT22;10637;47.970;7.830;2023-03-01T07:56:49;2.00;99.90
20957;DHT22;10637;47.970;7.830;2023-03-01T08:01:51;2.10;99.90
20957;DHT22;10637;47.970;7.830;2023-03-01T08:06:54;2.20;99.90
20957;DHT22;10637;47.970;7.830;2023-03-01T08:11:57;2.20;99.90
20957;DHT22;10637;47.970;7.830;2023-03-01T08:17:01;2.20;99.90
20957;DHT22;10637;47.970;7.830;2023-03-01T08:22:04;2.20;99.90
20957;DHT22;10637;47.970;7.830;2023-03-01T08:27:06;2.20;99.90
20957;DHT22;10637;47.970;7.830;2023-03-01T08:32:07;2.40;99.90
20957;DHT22;10637;47.970;7.830;2023-03-01T08:37:09;2.20;99.90
20957;DHT22;10637;47.970;7.830;2023-03-01T08:42:11;2.50;99.90
20957;DHT22;10637;47.970;7.830;2023-03-01T08:47:14;2.50;99.90
20957;DHT22;10637;47.970;7.830;2023-03-01T08:52:15;2.60;99.90
20957;DHT22;10637;47.970;7.830;2023-03-01T08:57:17;2.60;99.90
20957;DHT22;10637;47.970;7.830;2023-03-01T09:02:19;2.70;99.90
20957;DHT22;10637;47.970;7.830;2023-03-01T09:07:21;3.10;99.90
20957;DHT22;10637;47.970;7.830;2023-03-01T09:12:22;3.20;99.90
20957;DHT22;10637;47.970;7.830;2023-03-01T09:17:26;3.00;99.90
20957;DHT22;10637;47.970;7.830;2023-03-01T09:22:28;3.10;99.90
20957;DHT22;10637;47.970;7.830;2023-03-01T09:27:29;3.50;99.90
20957;DHT22;10637;47.970;7.830;2023-03-01T09:32:31;3.40;99.90
20957;DHT22;10637;47.970;7.830;2023-03-01T09:37:34;3.50;99.90
20957;DHT22;10637;47.970;7.830;2023-03-01T09:42:46;3.80;99.90
20957;DHT22;10637;47.970;7.830;2023-03-01T09:47:50;4.30;99.90
20957;DHT22;10637;47.970;7.830;2023-03-01T09:53:02;4.40;99.90
20957;DHT22;10637;47.970;7.830;2023-03-01T10:03:31;4.60;99.90
20957;DHT22;10637;47.970;7.830;2023-03-01T10:09:05;4.70;99.90
20957;DHT22;10637;47.970;7.830;2023-03-01T10:19:33;4.90;99.90
20957;DHT22;10637;47.970;7.830;2023-03-01T10:24:37;5.10;99.70
20957;DHT22;10637;47.970;7.830;2023-03-01T10:29:57;5.20;99.30
20957;DHT22;10637;47.970;7.830;2023-03-01T10:35:00;5.80;98.50
20957;DHT22;10637;47.970;7.830;2023-03-01T10:40:08;5.70;98.10
20957;DHT22;10637;47.970;7.830;2023-03-01T10:50:27;6.20;97.20
20957;DHT22;10637;47.970;7.830;2023-03-01T10:55:36;6.30;97.00
20957;DHT22;10637;47.970;7.830;2023-03-01T11:16:14;7.10;95.30
20957;DHT22;10637;47.970;7.830;2023-03-01T11:21:16;6.80;95.70
20957;DHT22;10637;47.970;7.830;2023-03-01T11:26:18;7.10;95.40
20957;DHT22;10637;47.970;7.830;2023-03-01T11:31:23;7.20;94.80
20957;DHT22;10637;47.970;7.830;2023-03-01T11:36:53;7.40;94.50
20957;DHT22;10637;47.970;7.830;2023-03-01T11:42:15;7.20;94.30
20957;DHT22;10637;47.970;7.830;2023-03-01T11:58:26;7.90;93.50
20957;DHT22;10637;47.970;7.830;2023-03-01T12:04:06;8.10;92.90
20957;DHT22;10637;47.970;7.830;2023-03-01T12:09:52;8.50;92.10
20957;DHT22;10637;47.970;7.830;2023-03-01T12:25:45;9.40;90.40
20957;DHT22;10637;47.970;7.830;2023-03-01T12:52:48;10.80;82.90
20957;DHT22;10637;47.970;7.830;2023-03-01T12:58:00;10.50;83.30
20957;DHT22;10637;47.970;7.830;2023-03-01T13:08:21;12.90;78.50
20957;DHT22;10637;47.970;7.830;2023-03-01T13:13:26;14.80;73.70
20957;DHT22;10637;47.970;7.830;2023-03-01T13:18:30;15.50;70.30
20957;DHT22;10637;47.970;7.830;2023-03-01T13:23:37;16.70;67.90
20957;DHT22;10637;47.970;7.830;2023-03-01T13:28:48;17.20;63.30
20957;DHT22;10637;47.970;7.830;2023-03-01T13:34:00;17.90;63.20
20957;DHT22;10637;47.970;7.830;2023-03-01T13:39:28;17.30;61.00
20957;DHT22;10637;47.970;7.830;2023-03-01T13:44:36;17.10;62.20
20957;DHT22;10637;47.970;7.830;2023-03-01T13:49:55;16.50;63.40
20957;DHT22;10637;47.970;7.830;2023-03-01T13:55:03;14.60;63.90
20957;DHT22;10637;47.970;7.830;2023-03-01T14:00:24;13.70;67.90
20957;DHT22;10637;47.970;7.830;2023-03-01T14:05:26;13.40;68.40
20957;DHT22;10637;47.970;7.830;2023-03-01T14:10:37;12.70;70.90
20957;DHT22;10637;47.970;7.830;2023-03-01T14:15:54;13.90;69.30
20957;DHT22;10637;47.970;7.830;2023-03-01T14:21:01;14.50;67.20
20957;DHT22;10637;47.970;7.830;2023-03-01T14:26:09;13.80;67.50
20957;DHT22;10637;47.970;7.830;2023-03-01T14:36:44;14.70;66.60
20957;DHT22;10637;47.970;7.830;2023-03-01T14:41:46;14.30;65.20
20957;DHT22;10637;47.970;7.830;2023-03-01T14:46:54;14.00;67.30
20957;DHT22;10637;47.970;7.830;2023-03-01T14:52:06;13.50;68.00
20957;DHT22;10637;47.970;7.830;2023-03-01T14:57:21;13.50;68.80
20957;DHT22;10637;47.970;7.830;2023-03-01T15:02:27;13.90;68.00
20957;DHT22;10637;47.970;7.830;2023-03-01T15:07:33;13.20;68.90
20957;DHT22;10637;47.970;7.830;2023-03-01T15:12:38;12.60;70.80
20957;DHT22;10637;47.970;7.830;2023-03-01T15:17:40;12.20;71.40
20957;DHT22;10637;47.970;7.830;2023-03-01T15:22:45;11.80;72.80
20957;DHT22;10637;47.970;7.830;2023-03-01T15:27:51;11.50;74.00
20957;DHT22;10637;47.970;7.830;2023-03-01T15:33:17;11.70;74.40
20957;DHT22;10637;47.970;7.830;2023-03-01T15:38:26;11.50;75.40
20957;DHT22;10637;47.970;7.830;2023-03-01T15:43:45;10.90;77.20
20957;DHT22;10637;47.970;7.830;2023-03-01T15:48:50;10.40;78.90
20957;DHT22;10637;47.970;7.830;2023-03-01T15:53:53;10.00;80.90
20957;DHT22;10637;47.970;7.830;2023-03-01T15:59:00;10.20;80.50
20957;DHT22;10637;47.970;7.830;2023-03-01T16:04:02;10.10;80.30
20957;DHT22;10637;47.970;7.830;2023-03-01T16:09:05;9.80;81.50
20957;DHT22;10637;47.970;7.830;2023-03-01T16:14:07;9.40;82.40
20957;DHT22;10637;47.970;7.830;2023-03-01T16:19:09;9.10;84.10
20957;DHT22;10637;47.970;7.830;2023-03-01T16:24:12;8.80;84.60
20957;DHT22;10637;47.970;7.830;2023-03-01T16:29:14;8.80;84.70
20957;DHT22;10637;47.970;7.830;2023-03-01T16:34:16;8.60;85.40
20957;DHT22;10637;47.970;7.830;2023-03-01T16:39:18;8.40;85.80
20957;DHT22;10637;47.970;7.830;2023-03-01T16:44:20;8.20;86.50
20957;DHT22;10637;47.970;7.830;2023-03-01T16:49:22;8.10;86.90
20957;DHT22;10637;47.970;7.830;2023-03-01T16:54:23;8.00;87.30
20957;DHT22;10637;47.970;7.830;2023-03-01T16:59:25;8.00;87.80
20957;DHT22;10637;47.970;7.830;2023-03-01T17:04:27;7.80;88.40
20957;DHT22;10637;47.970;7.830;2023-03-01T17:09:29;7.70;88.70
20957;DHT22;10637;47.970;7.830;2023-03-01T17:14:32;7.30;90.70
20957;DHT22;10637;47.970;7.830;2023-03-01T17:19:33;7.00;91.60
20957;DHT22;10637;47.970;7.830;2023-03-01T17:24:38;7.10;92.10
20957;DHT22;10637;47.970;7.830;2023-03-01T17:29:40;7.10;92.70
20957;DHT22;10637;47.970;7.830;2023-03-01T17:34:42;6.90;92.90
20957;DHT22;10637;47.970;7.830;2023-03-01T17:39:44;6.40;93.70
20957;DHT22;10637;47.970;7.830;2023-03-01T17:44:45;6.00;94.30
20957;DHT22;10637;47.970;7.830;2023-03-01T17:49:47;6.10;94.70
20957;DHT22;10637;47.970;7.830;2023-03-01T17:54:50;6.00;95.30
20957;DHT22;10637;47.970;7.830;2023-03-01T17:59:51;6.00;95.70
20957;DHT22;10637;47.970;7.830;2023-03-01T18:04:57;5.80;96.30
20957;DHT22;10637;47.970;7.830;2023-03-01T18:09:59;5.80;96.40
20957;DHT22;10637;47.970;7.830;2023-03-01T18:15:01;5.60;97.00
20957;DHT22;10637;47.970;7.830;2023-03-01T18:20:04;5.40;97.20
20957;DHT22;10637;47.970;7.830;2023-03-01T18:25:06;5.40;97.40
20957;DHT22;10637;47.970;7.830;2023-03-01T18:30:08;5.40;97.40
20957;DHT22;10637;47.970;7.830;2023-03-01T18:35:10;5.40;97.80
20957;DHT22;10637;47.970;7.830;2023-03-01T18:40:12;5.50;97.90
20957;DHT22;10637;47.970;7.830;2023-03-01T18:45:14;5.70;97.60
20957;DHT22;10637;47.970;7.830;2023-03-01T18:50:18;5.70;97.60
20957;DHT22;10637;47.970;7.830;2023-03-01T18:55:20;5.60;98.10
20957;DHT22;10637;47.970;7.830;2023-03-01T19:00:22;5.60;98.20
20957;DHT22;10637;47.970;7.830;2023-03-01T19:05:24;5.60;98.50
20957;DHT22;10637;47.970;7.830;2023-03-01T19:10:25;5.40;98.80
20957;DHT22;10637;47.970;7.830;2023-03-01T19:15:28;5.10;99.50
20957;DHT22;10637;47.970;7.830;2023-03-01T19:20:30;5.30;99.40
20957;DHT22;10637;47.970;7.830;2023-03-01T19:25:33;5.30;99.70
20957;DHT22;10637;47.970;7.830;2023-03-01T19:30:36;5.30;99.90
20957;DHT22;10637;47.970;7.830;2023-03-01T19:35:38;5.10;99.90
20957;DHT22;10637;47.970;7.830;2023-03-01T19:40:40;5.10;99.90
20957;DHT22;10637;47.970;7.830;2023-03-01T19:45:41;5.10;99.90
20957;DHT22;10637;47.970;7.830;2023-03-01T19:50:43;5.00;99.90
20957;DHT22;10637;47.970;7.830;2023-03-01T19:55:48;5.00;99.90
20957;DHT22;10637;47.970;7.830;2023-03-01T20:00:53;4.90;99.90
20957;DHT22;10637;47.970;7.830;2023-03-01T20:05:59;4.90;99.90
20957;DHT22;10637;47.970;7.830;2023-03-01T20:11:05;5.00;99.90
20957;DHT22;10637;47.970;7.830;2023-03-01T20:16:07;5.20;99.90
20957;DHT22;10637;47.970;7.830;2023-03-01T20:21:09;5.20;99.90
20957;DHT22;10637;47.970;7.830;2023-03-01T20:26:24;5.00;99.90
20957;DHT22;10637;47.970;7.830;2023-03-01T20:31:27;4.90;99.90
20957;DHT22;10637;47.970;7.830;2023-03-01T20:36:30;5.10;99.90
20957;DHT22;10637;47.970;7.830;2023-03-01T20:41:32;5.20;99.90
20957;DHT22;10637;47.970;7.830;2023-03-01T20:46:34;5.00;99.90
20957;DHT22;10637;47.970;7.830;2023-03-01T20:51:37;4.90;99.90
20957;DHT22;10637;47.970;7.830;2023-03-01T20:56:38;5.10;99.90
20957;DHT22;10637;47.970;7.830;2023-03-01T21:01:40;4.90;99.90
20957;DHT22;10637;47.970;7.830;2023-03-01T21:06:45;5.10;99.90
20957;DHT22;10637;47.970;7.830;2023-03-01T21:11:50;5.10;99.90
20957;DHT22;10637;47.970;7.830;2023-03-01T21:16:52;5.00;99.90
20957;DHT22;10637;47.970;7.830;2023-03-01T21:21:54;5.20;99.90
20957;DHT22;10637;47.970;7.830;2023-03-01T21:26:55;5.30;99.90
20957;DHT22;10637;47.970;7.830;2023-03-01T21:31:57;5.20;99.90
20957;DHT22;10637;47.970;7.830;2023-03-01T21:36:59;5.40;99.90
20957;DHT22;10637;47.970;7.830;2023-03-01T21:42:03;5.30;99.90
20957;DHT22;10637;47.970;7.830;2023-03-01T21:47:05;5.30;99.90
20957;DHT22;10637;47.970;7.830;2023-03-01T21:52:07;5.10;99.90
20957;DHT22;10637;47.970;7.830;2023-03-01T21:57:09;5.10;99.90
20957;DHT22;10637;47.970;7.830;2023-03-01T22:02:11;5.30;99.90
20957;DHT22;10637;47.970;7.830;2023-03-01T22:07:13;5.30;99.90
20957;DHT22;10637;47.970;7.830;2023-03-01T22:12:14;5.20;99.90
20957;DHT22;10637;47.970;7.830;2023-03-01T22:17:16;4.90;99.90
20957;DHT22;10637;47.970;7.830;2023-03-01T22:22:18;5.00;99.90
20957;DHT22;10637;47.970;7.830;2023-03-01T22:27:19;5.20;99.90
20957;DHT22;10637;47.970;7.830;2023-03-01T22:32:21;4.90;99.90
20957;DHT22;10637;47.970;7.830;2023-03-01T22:37:23;5.10;99.90
20957;DHT22;10637;47.970;7.830;2023-03-01T22:42:25;5.00;99.90
20957;DHT22;10637;47.970;7.830;2023-03-01T22:47:28;5.10;99.90
20957;DHT22;10637;47.970;7.830;2023-03-01T22:52:30;5.00;99.90
20957;DHT22;10637;47.970;7.830;2023-03-01T22:57:32;5.20;99.90
20957;DHT22;10637;47.970;7.830;2023-03-01T23:02:33;5.10;99.90
20957;DHT22;10637;47.970;7.830;2023-03-01T23:07:36;5.00;99.90
20957;DHT22;10637;47.970;7.830;2023-03-01T23:12:41;5.00;99.90
20957;DHT22;10637;47.970;7.830;2023-03-01T23:17:42;5.10;99.90
20957;DHT22;10637;47.970;7.830;2023-03-01T23:22:44;5.00;99.90
20957;DHT22;10637;47.970;7.830;2023-03-01T23:27:46;4.90;99.90
20957;DHT22;10637;47.970;7.830;2023-03-01T23:32:48;4.80;99.90
20957;DHT22;10637;47.970;7.830;2023-03-01T23:37:50;4.60;99.90
20957;DHT22;10637;47.970;7.830;2023-03-01T23:42:52;4.30;99.90
20957;DHT22;10637;47.970;7.830;2023-03-01T23:47:54;4.10;99.90
20957;DHT22;10637;47.970;7.830;2023-03-01T23:52:57;4.20;99.90
20957;DHT22;10637;47.970;7.830;2023-03-01T23:57:59;4.10;99.90
